Sterling, Idaho
Current Conditions -  °F | °C
As of 5:53 AM on Monday 22 Dec 2014 (Local Time) from KPIH Reporting Station
Overcast Overcast  
Wind Chill: 24°   Ceiling: 600
Heat Index: 35°   Visibility: 10mi
Dew Point: 35°   Wind: 21mph
Humidity: 100%   Direction: 250°WSW
Pressure: 29.98"   Gusts: NA
Location:  43.1849°N, 112.825°W
Report Text: KPIH 221253Z 25018KT 10SM OVC006 02/02 A2998 RMK AO2 SLP157 T00170017
Loading
Personal Weather Stations






























Interactive Weather Map New forecast layout! Learn more

10-Day Weather Forecast

Advertisements
Track Severe Weather on mobile